sensor_id;sensor_type;location;lat;lon;timestamp;pressure;altitude;pressure_sealevel;temperature;humidity
31285;BME280;56605;51.516;6.742;2023-01-24T00:00:35;103575.25;;;1.71;100.00
31285;BME280;56605;51.516;6.742;2023-01-24T00:03:01;103571.75;;;1.71;100.00
31285;BME280;56605;51.516;6.742;2023-01-24T00:05:26;103583.03;;;1.76;100.00
31285;BME280;56605;51.516;6.742;2023-01-24T00:07:51;103587.50;;;1.72;100.00
31285;BME280;56605;51.516;6.742;2023-01-24T00:10:17;103597.25;;;1.70;100.00
31285;BME280;56605;51.516;6.742;2023-01-24T00:12:42;103585.00;;;1.68;100.00
31285;BME280;56605;51.516;6.742;2023-01-24T00:15:08;103581.38;;;1.72;100.00
31285;BME280;56605;51.516;6.742;2023-01-24T00:17:33;103573.47;;;1.72;100.00
31285;BME280;56605;51.516;6.742;2023-01-24T00:19:59;103575.22;;;1.73;100.00
31285;BME280;56605;51.516;6.742;2023-01-24T00:22:24;103575.25;;;1.71;100.00
31285;BME280;56605;51.516;6.742;2023-01-24T00:24:49;103577.97;;;1.68;100.00
31285;BME280;56605;51.516;6.742;2023-01-24T00:27:16;103571.94;;;1.63;100.00
31285;BME280;56605;51.516;6.742;2023-01-24T00:29:41;103575.38;;;1.67;100.00
31285;BME280;56605;51.516;6.742;2023-01-24T00:32:07;103576.31;;;1.64;100.00
31285;BME280;56605;51.516;6.742;2023-01-24T00:34:32;103575.38;;;1.67;100.00
31285;BME280;56605;51.516;6.742;2023-01-24T00:36:57;103567.38;;;1.70;100.00
31285;BME280;56605;51.516;6.742;2023-01-24T00:39:23;103572.66;;;1.70;100.00
31285;BME280;56605;51.516;6.742;2023-01-24T00:41:48;103565.72;;;1.67;100.00
31285;BME280;56605;51.516;6.742;2023-01-24T00:44:13;103564.81;;;1.67;100.00
31285;BME280;56605;51.516;6.742;2023-01-24T00:46:39;103564.91;;;1.63;100.00
31285;BME280;56605;51.516;6.742;2023-01-24T00:49:04;103550.81;;;1.64;100.00
31285;BME280;56605;51.516;6.742;2023-01-24T00:51:30;103555.16;;;1.67;100.00
31285;BME280;56605;51.516;6.742;2023-01-24T00:53:55;103556.13;;;1.63;100.00
31285;BME280;56605;51.516;6.742;2023-01-24T00:56:20;103564.97;;;1.60;100.00
31285;BME280;56605;51.516;6.742;2023-01-24T00:58:45;103557.00;;;1.63;100.00
31285;BME280;56605;51.516;6.742;2023-01-24T01:01:11;103551.81;;;1.60;100.00
31285;BME280;56605;51.516;6.742;2023-01-24T01:03:36;103560.69;;;1.56;100.00
31285;BME280;56605;51.516;6.742;2023-01-24T01:06:15;103559.81;;;1.56;100.00
31285;BME280;56605;51.516;6.742;2023-01-24T01:08:41;103565.97;;;1.56;100.00
31285;BME280;56605;51.516;6.742;2023-01-24T01:11:07;103559.84;;;1.54;100.00
31285;BME280;56605;51.516;6.742;2023-01-24T01:13:33;103576.50;;;1.56;100.00
31285;BME280;56605;51.516;6.742;2023-01-24T01:16:18;103580.88;;;1.56;100.00
31285;BME280;56605;51.516;6.742;2023-01-24T01:18:45;103580.00;;;1.57;100.00
31285;BME280;56605;51.516;6.742;2023-01-24T01:21:13;103578.28;;;1.54;100.00
31285;BME280;56605;51.516;6.742;2023-01-24T01:23:39;103580.97;;;1.52;100.00
31285;BME280;56605;51.516;6.742;2023-01-24T01:26:07;103581.81;;;1.55;100.00
31285;BME280;56605;51.516;6.742;2023-01-24T01:28:33;103576.47;;;1.58;100.00
31285;BME280;56605;51.516;6.742;2023-01-24T01:30:58;103586.16;;;1.56;100.00
31285;BME280;56605;51.516;6.742;2023-01-24T01:33:24;103573.94;;;1.53;100.00
31285;BME280;56605;51.516;6.742;2023-01-24T01:35:51;103573.97;;;1.51;100.00
31285;BME280;56605;51.516;6.742;2023-01-24T01:38:17;103572.16;;;1.55;100.00
31285;BME280;56605;51.516;6.742;2023-01-24T01:40:43;103573.13;;;1.51;100.00
31285;BME280;56605;51.516;6.742;2023-01-24T01:43:17;103570.59;;;1.46;100.00
31285;BME280;56605;51.516;6.742;2023-01-24T01:45:45;103565.34;;;1.46;100.00
31285;BME280;56605;51.516;6.742;2023-01-24T01:48:24;103574.97;;;1.47;100.00
31285;BME280;56605;51.516;6.742;2023-01-24T01:51:00;103573.97;;;1.51;100.00
31285;BME280;56605;51.516;6.742;2023-01-24T01:53:31;103574.97;;;1.47;100.00
31285;BME280;56605;51.516;6.742;2023-01-24T01:56:03;103567.94;;;1.48;100.00
31285;BME280;56605;51.516;6.742;2023-01-24T01:58:34;103580.22;;;1.47;100.00
31285;BME280;56605;51.516;6.742;2023-01-24T02:00:59;103585.38;;;1.52;100.00
31285;BME280;56605;51.516;6.742;2023-01-24T02:03:31;103572.31;;;1.47;100.00
31285;BME280;56605;51.516;6.742;2023-01-24T02:06:10;103569.66;;;1.49;100.00
31285;BME280;56605;51.516;6.742;2023-01-24T02:08:38;103570.59;;;1.46;100.00
31285;BME280;56605;51.516;6.742;2023-01-24T02:11:06;103568.84;;;1.45;100.00
31285;BME280;56605;51.516;6.742;2023-01-24T02:13:52;103565.31;;;1.48;100.00
31285;BME280;56605;51.516;6.742;2023-01-24T02:16:37;103563.63;;;1.44;100.00
31285;BME280;56605;51.516;6.742;2023-01-24T02:19:03;103566.19;;;1.47;100.00
31285;BME280;56605;51.516;6.742;2023-01-24T02:21:29;103560.03;;;1.48;100.00
31285;BME280;56605;51.516;6.742;2023-01-24T02:24:03;103561.84;;;1.46;100.00
31285;BME280;56605;51.516;6.742;2023-01-24T02:26:30;103559.28;;;1.43;100.00
31285;BME280;56605;51.516;6.742;2023-01-24T02:28:59;103550.41;;;1.45;100.00
31285;BME280;56605;51.516;6.742;2023-01-24T02:31:26;103556.59;;;1.44;100.00
31285;BME280;56605;51.516;6.742;2023-01-24T02:33:51;103564.47;;;1.46;100.00
31285;BME280;56605;51.516;6.742;2023-01-24T02:36:34;103553.06;;;1.45;100.00
31285;BME280;56605;51.516;6.742;2023-01-24T02:39:09;103551.38;;;1.43;100.00
31285;BME280;56605;51.516;6.742;2023-01-24T02:41:51;103554.91;;;1.42;100.00
31285;BME280;56605;51.516;6.742;2023-01-24T02:44:48;103561.13;;;1.39;100.00
31285;BME280;56605;51.516;6.742;2023-01-24T02:47:16;103555.81;;;1.41;100.00
31285;BME280;56605;51.516;6.742;2023-01-24T02:49:42;103561.13;;;1.39;100.00
31285;BME280;56605;51.516;6.742;2023-01-24T02:52:08;103561.00;;;1.44;100.00
31285;BME280;56605;51.516;6.742;2023-01-24T02:54:52;103551.38;;;1.43;100.00
31285;BME280;56605;51.516;6.742;2023-01-24T02:57:17;103549.69;;;1.40;100.00
31285;BME280;56605;51.516;6.742;2023-01-24T03:00:03;103559.34;;;1.39;100.00
31285;BME280;56605;51.516;6.742;2023-01-24T03:02:30;103553.16;;;1.42;100.00
31285;BME280;56605;51.516;6.742;2023-01-24T03:04:55;103548.75;;;1.43;100.00
31285;BME280;56605;51.516;6.742;2023-01-24T03:07:20;103547.00;;;1.42;100.00
31285;BME280;56605;51.516;6.742;2023-01-24T03:09:46;103548.78;;;1.41;100.00
31285;BME280;56605;51.516;6.742;2023-01-24T03:12:11;103547.09;;;1.38;100.00
31285;BME280;56605;51.516;6.742;2023-01-24T03:14:55;103548.81;;;1.39;100.00
31285;BME280;56605;51.516;6.742;2023-01-24T03:17:39;103543.59;;;1.38;100.00
31285;BME280;56605;51.516;6.742;2023-01-24T03:20:23;103540.16;;;1.34;100.00
31285;BME280;56605;51.516;6.742;2023-01-24T03:23:07;103529.56;;;1.37;100.00
31285;BME280;56605;51.516;6.742;2023-01-24T03:25:56;103543.53;;;1.39;100.00
31285;BME280;56605;51.516;6.742;2023-01-24T03:28:41;103544.44;;;1.38;100.00
31285;BME280;56605;51.516;6.742;2023-01-24T03:31:25;103540.84;;;1.43;100.00
31285;BME280;56605;51.516;6.742;2023-01-24T03:34:08;103538.22;;;1.43;100.00
31285;BME280;56605;51.516;6.742;2023-01-24T03:36:53;103542.75;;;1.37;100.00
31285;BME280;56605;51.516;6.742;2023-01-24T03:39:18;103541.81;;;1.38;100.00
31285;BME280;56605;51.516;6.742;2023-01-24T03:42:02;103539.22;;;1.37;100.00
31285;BME280;56605;51.516;6.742;2023-01-24T03:44:28;103542.66;;;1.41;100.00
31285;BME280;56605;51.516;6.742;2023-01-24T03:46:53;103544.50;;;1.37;100.00
31285;BME280;56605;51.516;6.742;2023-01-24T03:49:18;103538.31;;;1.38;100.00
31285;BME280;56605;51.516;6.742;2023-01-24T03:51:44;103546.13;;;1.41;100.00
31285;BME280;56605;51.516;6.742;2023-01-24T03:54:27;103545.34;;;1.39;100.00
31285;BME280;56605;51.516;6.742;2023-01-24T03:56:53;103547.16;;;1.35;100.00
31285;BME280;56605;51.516;6.742;2023-01-24T03:59:18;103538.38;;;1.35;100.00
31285;BME280;56605;51.516;6.742;2023-01-24T04:01:43;103535.69;;;1.38;100.00
31285;BME280;56605;51.516;6.742;2023-01-24T04:04:09;103544.59;;;1.32;100.00
31285;BME280;56605;51.516;6.742;2023-01-24T04:06:36;103545.47;;;1.33;100.00
31285;BME280;56605;51.516;6.742;2023-01-24T04:09:02;103549.78;;;1.35;100.00
31285;BME280;56605;51.516;6.742;2023-01-24T04:11:27;103541.97;;;1.32;100.00
31285;BME280;56605;51.516;6.742;2023-01-24T04:13:52;103537.66;;;1.30;100.00
31285;BME280;56605;51.516;6.742;2023-01-24T04:16:17;103539.44;;;1.27;100.00
31285;BME280;56605;51.516;6.742;2023-01-24T04:18:43;103537.63;;;1.31;100.00
31285;BME280;56605;51.516;6.742;2023-01-24T04:21:09;103532.50;;;1.25;100.00
31285;BME280;56605;51.516;6.742;2023-01-24T04:23:34;103534.19;;;1.27;100.00
31285;BME280;56605;51.516;6.742;2023-01-24T04:25:59;103540.28;;;1.30;100.00
31285;BME280;56605;51.516;6.742;2023-01-24T04:28:26;103536.94;;;1.23;100.00
31285;BME280;56605;51.516;6.742;2023-01-24T04:30:59;103536.03;;;1.24;100.00
31285;BME280;56605;51.516;6.742;2023-01-24T04:33:25;103528.97;;;1.24;100.00
31285;BME280;56605;51.516;6.742;2023-01-24T04:35:51;103540.31;;;1.28;100.00
31285;BME280;56605;51.516;6.742;2023-01-24T04:38:16;103526.34;;;1.24;100.00
31285;BME280;56605;51.516;6.742;2023-01-24T04:40:41;103538.66;;;1.24;100.00
31285;BME280;56605;51.516;6.742;2023-01-24T04:43:07;103542.97;;;1.26;100.00
31285;BME280;56605;51.516;6.742;2023-01-24T04:45:32;103538.69;;;1.22;100.00
31285;BME280;56605;51.516;6.742;2023-01-24T04:47:57;103529.84;;;1.25;100.00
31285;BME280;56605;51.516;6.742;2023-01-24T04:50:23;103530.72;;;1.25;100.00
31285;BME280;56605;51.516;6.742;2023-01-24T04:52:48;103534.34;;;1.21;100.00
31285;BME280;56605;51.516;6.742;2023-01-24T04:55:13;103532.59;;;1.20;100.00
31285;BME280;56605;51.516;6.742;2023-01-24T04:57:39;103545.72;;;1.22;100.00
31285;BME280;56605;51.516;6.742;2023-01-24T05:00:04;103541.34;;;1.22;100.00
31285;BME280;56605;51.516;6.742;2023-01-24T05:02:30;103541.41;;;1.19;100.00
31285;BME280;56605;51.516;6.742;2023-01-24T05:04:55;103543.16;;;1.19;100.00
31285;BME280;56605;51.516;6.742;2023-01-24T05:07:21;103552.81;;;1.20;100.00
31285;BME280;56605;51.516;6.742;2023-01-24T05:09:46;103551.06;;;1.19;100.00
31285;BME280;56605;51.516;6.742;2023-01-24T05:12:11;103548.41;;;1.19;100.00
31285;BME280;56605;51.516;6.742;2023-01-24T05:14:37;103544.03;;;1.19;100.00
31285;BME280;56605;51.516;6.742;2023-01-24T05:17:02;103562.56;;;1.14;100.00
31285;BME280;56605;51.516;6.742;2023-01-24T05:19:27;103551.19;;;1.14;100.00
31285;BME280;56605;51.516;6.742;2023-01-24T05:21:53;103559.00;;;1.16;100.00
31285;BME280;56605;51.516;6.742;2023-01-24T05:24:18;103552.09;;;1.11;100.00
31285;BME280;56605;51.516;6.742;2023-01-24T05:26:44;103555.56;;;1.13;100.00
31285;BME280;56605;51.516;6.742;2023-01-24T05:29:09;103549.44;;;1.13;100.00
31285;BME280;56605;51.516;6.742;2023-01-24T05:31:34;103552.94;;;1.13;100.00
31285;BME280;56605;51.516;6.742;2023-01-24T05:34:00;103558.22;;;1.13;100.00
31285;BME280;56605;51.516;6.742;2023-01-24T05:36:25;103564.28;;;1.16;100.00
31285;BME280;56605;51.516;6.742;2023-01-24T05:38:50;103566.13;;;1.12;100.00
31285;BME280;56605;51.516;6.742;2023-01-24T05:41:17;103571.50;;;1.07;100.00
31285;BME280;56605;51.516;6.742;2023-01-24T05:43:44;103566.06;;;1.15;100.00
31285;BME280;56605;51.516;6.742;2023-01-24T05:46:13;103570.56;;;1.10;100.00
31285;BME280;56605;51.516;6.742;2023-01-24T05:48:38;103569.59;;;1.14;100.00
31285;BME280;56605;51.516;6.742;2023-01-24T05:51:08;103581.94;;;1.12;100.00
31285;BME280;56605;51.516;6.742;2023-01-24T05:53:37;103582.84;;;1.11;100.00
31285;BME280;56605;51.516;6.742;2023-01-24T05:56:05;103588.84;;;1.16;100.00
31285;BME280;56605;51.516;6.742;2023-01-24T05:58:36;103589.00;;;1.08;100.00
31285;BME280;56605;51.516;6.742;2023-01-24T06:01:06;103590.66;;;1.14;100.00
31285;BME280;56605;51.516;6.742;2023-01-24T06:03:32;103587.22;;;1.10;100.00
31285;BME280;56605;51.516;6.742;2023-01-24T06:05:57;103588.09;;;1.11;100.00
31285;BME280;56605;51.516;6.742;2023-01-24T06:08:22;103596.03;;;1.09;100.00
31285;BME280;56605;51.516;6.742;2023-01-24T06:10:48;103591.56;;;1.11;100.00
31285;BME280;56605;51.516;6.742;2023-01-24T06:13:14;103591.56;;;1.11;100.00
31285;BME280;56605;51.516;6.742;2023-01-24T06:15:40;103587.19;;;1.12;100.00
31285;BME280;56605;51.516;6.742;2023-01-24T06:18:06;103596.84;;;1.11;100.00
31285;BME280;56605;51.516;6.742;2023-01-24T06:20:32;103591.41;;;1.19;100.00
31285;BME280;56605;51.516;6.742;2023-01-24T06:23:05;103597.59;;;1.18;100.00
31285;BME280;56605;51.516;6.742;2023-01-24T06:25:32;103597.75;;;1.10;100.00
31285;BME280;56605;51.516;6.742;2023-01-24T06:27:58;103602.09;;;1.11;100.00
31285;BME280;56605;51.516;6.742;2023-01-24T06:30:23;103610.81;;;1.15;100.00
31285;BME280;56605;51.516;6.742;2023-01-24T06:38:17;103610.88;;;1.12;100.00
31285;BME280;56605;51.516;6.742;2023-01-24T06:40:44;103606.53;;;1.11;100.00
31285;BME280;56605;51.516;6.742;2023-01-24T06:43:09;103608.09;;;1.18;100.00
31285;BME280;56605;51.516;6.742;2023-01-24T06:45:35;103616.19;;;1.09;100.00
31285;BME280;56605;51.516;6.742;2023-01-24T06:48:00;103609.16;;;1.11;100.00
31285;BME280;56605;51.516;6.742;2023-01-24T06:50:26;103616.97;;;1.14;100.00
31285;BME280;56605;51.516;6.742;2023-01-24T06:52:54;103617.00;;;1.12;100.00
31285;BME280;56605;51.516;6.742;2023-01-24T06:55:19;103608.91;;;1.20;100.00
31285;BME280;56605;51.516;6.742;2023-01-24T06:57:44;103620.47;;;1.14;100.00
31285;BME280;56605;51.516;6.742;2023-01-24T07:00:13;103617.75;;;1.18;100.00
31285;BME280;56605;51.516;6.742;2023-01-24T07:02:38;103630.16;;;1.12;100.00
31285;BME280;56605;51.516;6.742;2023-01-24T07:05:04;103628.38;;;1.13;100.00
31285;BME280;56605;51.516;6.742;2023-01-24T07:07:29;103624.94;;;1.11;100.00
31285;BME280;56605;51.516;6.742;2023-01-24T07:09:54;103623.13;;;1.13;100.00
31285;BME280;56605;51.516;6.742;2023-01-24T07:12:19;103625.84;;;1.08;100.00
31285;BME280;56605;51.516;6.742;2023-01-24T07:14:45;103625.88;;;1.07;100.00
31285;BME280;56605;51.516;6.742;2023-01-24T07:17:10;103626.66;;;1.12;100.00
31285;BME280;56605;51.516;6.742;2023-01-24T07:19:36;103633.66;;;1.13;100.00
31285;BME280;56605;51.516;6.742;2023-01-24T07:22:01;103638.91;;;1.13;100.00
31285;BME280;56605;51.516;6.742;2023-01-24T07:24:29;103638.16;;;1.08;100.00
31285;BME280;56605;51.516;6.742;2023-01-24T07:26:55;103642.56;;;1.06;100.00
31285;BME280;56605;51.516;6.742;2023-01-24T07:29:21;103639.06;;;1.05;100.00
31285;BME280;56605;51.516;6.742;2023-01-24T07:31:46;103646.16;;;1.03;100.00
31285;BME280;56605;51.516;6.742;2023-01-24T07:34:16;103647.81;;;1.07;100.00
31285;BME280;56605;51.516;6.742;2023-01-24T07:36:42;103649.66;;;1.04;100.00
31285;BME280;56605;51.516;6.742;2023-01-24T07:39:08;103650.41;;;1.09;100.00
31285;BME280;56605;51.516;6.742;2023-01-24T07:41:34;103661.97;;;1.01;100.00
31285;BME280;56605;51.516;6.742;2023-01-24T07:44:00;103653.94;;;1.08;100.00
31285;BME280;56605;51.516;6.742;2023-01-24T07:46:30;103660.13;;;1.05;100.00
31285;BME280;56605;51.516;6.742;2023-01-24T07:48:55;103660.94;;;1.09;100.00
31285;BME280;56605;51.516;6.742;2023-01-24T07:51:21;103661.84;;;1.08;100.00
31285;BME280;56605;51.516;6.742;2023-01-24T07:53:47;103661.84;;;1.08;100.00
31285;BME280;56605;51.516;6.742;2023-01-24T07:56:13;103665.38;;;1.05;100.00
31285;BME280;56605;51.516;6.742;2023-01-24T07:58:40;103664.50;;;1.06;100.00
31285;BME280;56605;51.516;6.742;2023-01-24T08:01:05;103671.47;;;1.09;100.00
31285;BME280;56605;51.516;6.742;2023-01-24T08:03:31;103669.69;;;1.11;100.00
31285;BME280;56605;51.516;6.742;2023-01-24T08:05:57;103668.72;;;1.13;100.00
31285;BME280;56605;51.516;6.742;2023-01-24T08:08:22;103668.78;;;1.12;100.00
31285;BME280;56605;51.516;6.742;2023-01-24T08:10:47;103671.41;;;1.12;100.00
31285;BME280;56605;51.516;6.742;2023-01-24T08:13:13;103670.47;;;1.14;100.00
31285;BME280;56605;51.516;6.742;2023-01-24T08:15:38;103676.66;;;1.12;100.00
31285;BME280;56605;51.516;6.742;2023-01-24T08:18:03;103677.50;;;1.14;100.00
31285;BME280;56605;51.516;6.742;2023-01-24T08:20:29;103674.81;;;1.16;100.00
31285;BME280;56605;51.516;6.742;2023-01-24T08:22:55;103673.06;;;1.16;100.00
31285;BME280;56605;51.516;6.742;2023-01-24T08:25:27;103682.63;;;1.20;100.00
31285;BME280;56605;51.516;6.742;2023-01-24T08:27:55;103680.97;;;1.16;100.00
31285;BME280;56605;51.516;6.742;2023-01-24T08:30:20;103688.09;;;1.11;100.00
31285;BME280;56605;51.516;6.742;2023-01-24T08:32:45;103680.25;;;1.08;100.00
31285;BME280;56605;51.516;6.742;2023-01-24T08:35:11;103690.56;;;1.17;100.00
31285;BME280;56605;51.516;6.742;2023-01-24T08:37:36;103687.84;;;1.22;100.00
31285;BME280;56605;51.516;6.742;2023-01-24T08:40:02;103694.09;;;1.18;100.00
31285;BME280;56605;51.516;6.742;2023-01-24T08:42:28;103700.28;;;1.15;100.00
31285;BME280;56605;51.516;6.742;2023-01-24T08:44:53;103689.84;;;1.10;100.00
31285;BME280;56605;51.516;6.742;2023-01-24T08:47:18;103697.44;;;1.24;100.00
31285;BME280;56605;51.516;6.742;2023-01-24T08:49:43;103700.16;;;1.21;100.00
31285;BME280;56605;51.516;6.742;2023-01-24T08:52:09;103702.00;;;1.16;100.00
31285;BME280;56605;51.516;6.742;2023-01-24T08:54:35;103705.50;;;1.18;100.00
31285;BME280;56605;51.516;6.742;2023-01-24T08:57:04;103707.13;;;1.24;100.00
31285;BME280;56605;51.516;6.742;2023-01-24T08:59:30;103707.09;;;1.25;100.00
31285;BME280;56605;51.516;6.742;2023-01-24T09:01:55;103718.63;;;1.20;100.00
31285;BME280;56605;51.516;6.742;2023-01-24T09:04:22;103715.94;;;1.21;100.00
31285;BME280;56605;51.516;6.742;2023-01-24T09:06:50;103713.19;;;1.26;100.00
31285;BME280;56605;51.516;6.742;2023-01-24T09:09:16;103708.84;;;1.25;100.00
31285;BME280;56605;51.516;6.742;2023-01-24T09:11:41;103712.19;;;1.33;100.00
31285;BME280;56605;51.516;6.742;2023-01-24T09:14:06;103710.34;;;1.37;100.00
31285;BME280;56605;51.516;6.742;2023-01-24T09:16:32;103715.69;;;1.34;100.00
31285;BME280;56605;51.516;6.742;2023-01-24T09:18:57;103713.16;;;1.27;100.00
31285;BME280;56605;51.516;6.742;2023-01-24T09:21:22;103714.81;;;1.33;100.00
31285;BME280;56605;51.516;6.742;2023-01-24T09:23:48;103722.59;;;1.38;100.00
31285;BME280;56605;51.516;6.742;2023-01-24T09:26:13;103719.13;;;1.37;100.00
31285;BME280;56605;51.516;6.742;2023-01-24T09:28:39;103719.31;;;1.28;100.00
31285;BME280;56605;51.516;6.742;2023-01-24T09:31:07;103715.75;;;1.29;100.00
31285;BME280;56605;51.516;6.742;2023-01-24T09:33:32;103725.38;;;1.32;100.00
31285;BME280;56605;51.516;6.742;2023-01-24T09:36:00;103713.97;;;1.31;100.00
31285;BME280;56605;51.516;6.742;2023-01-24T09:38:27;103722.78;;;1.30;100.00
31285;BME280;56605;51.516;6.742;2023-01-24T09:43:56;103720.84;;;1.38;100.00
31285;BME280;56605;51.516;6.742;2023-01-24T09:46:35;103711.94;;;1.44;100.00
31285;BME280;56605;51.516;6.742;2023-01-24T09:49:09;103715.50;;;1.42;100.00
31285;BME280;56605;51.516;6.742;2023-01-24T09:51:41;103715.97;;;1.61;100.00
31285;BME280;56605;51.516;6.742;2023-01-24T09:54:15;103715.13;;;1.59;100.00
31285;BME280;56605;51.516;6.742;2023-01-24T09:56:45;103715.16;;;1.57;100.00
31285;BME280;56605;51.516;6.742;2023-01-24T10:01:38;103719.22;;;1.72;100.00
31285;BME280;56605;51.516;6.742;2023-01-24T10:04:35;103727.94;;;1.76;100.00
31285;BME280;56605;51.516;6.742;2023-01-24T10:18:08;103734.47;;;1.58;100.00
31285;BME280;56605;51.516;6.742;2023-01-24T10:20:45;103736.38;;;1.51;100.00
31285;BME280;56605;51.516;6.742;2023-01-24T10:23:18;103736.91;;;1.67;100.00
31285;BME280;56605;51.516;6.742;2023-01-24T10:25:56;103728.00;;;1.73;100.00
31285;BME280;56605;51.516;6.742;2023-01-24T10:28:36;103729.75;;;1.72;100.00
31285;BME280;56605;51.516;6.742;2023-01-24T10:31:13;103727.09;;;1.74;100.00
31285;BME280;56605;51.516;6.742;2023-01-24T10:33:45;103726.09;;;1.78;100.00
31285;BME280;56605;51.516;6.742;2023-01-24T10:36:19;103724.44;;;1.74;100.00
31285;BME280;56605;51.516;6.742;2023-01-24T10:38:47;103721.59;;;1.85;100.00
31285;BME280;56605;51.516;6.742;2023-01-24T10:41:16;103728.69;;;1.81;100.00
31285;BME280;56605;51.516;6.742;2023-01-24T10:43:45;103723.81;;;1.64;100.00
31285;BME280;56605;51.516;6.742;2023-01-24T10:46:36;103728.50;;;1.89;100.00
31285;BME280;56605;51.516;6.742;2023-01-24T10:49:09;103731.81;;;1.59;100.00
31285;BME280;56605;51.516;6.742;2023-01-24T10:51:37;103719.50;;;1.60;100.00
31285;BME280;56605;51.516;6.742;2023-01-24T10:54:03;103727.38;;;1.61;100.00
31285;BME280;56605;51.516;6.742;2023-01-24T10:56:29;103734.34;;;1.64;100.00
31285;BME280;56605;51.516;6.742;2023-01-24T10:59:00;103729.78;;;1.71;100.00
31285;BME280;56605;51.516;6.742;2023-01-24T11:01:35;103720.25;;;1.65;100.00
31285;BME280;56605;51.516;6.742;2023-01-24T11:04:13;103726.41;;;1.66;100.00
31285;BME280;56605;51.516;6.742;2023-01-24T11:06:40;103714.25;;;1.60;100.00
31285;BME280;56605;51.516;6.742;2023-01-24T11:09:14;103710.66;;;1.62;100.00
31285;BME280;56605;51.516;6.742;2023-01-24T11:11:43;103704.53;;;1.62;100.00
31285;BME280;56605;51.516;6.742;2023-01-24T11:14:13;103713.97;;;1.71;100.00
31285;BME280;56605;51.516;6.742;2023-01-24T11:16:48;103702.44;;;1.76;100.00
31285;BME280;56605;51.516;6.742;2023-01-24T11:19:34;103702.22;;;1.86;100.00
31285;BME280;56605;51.516;6.742;2023-01-24T11:24:45;103707.91;;;1.69;100.00
31285;BME280;56605;51.516;6.742;2023-01-24T11:27:20;103699.63;;;1.84;100.00
31285;BME280;56605;51.516;6.742;2023-01-24T11:32:47;103693.50;;;1.82;100.00
31285;BME280;56605;51.516;6.742;2023-01-24T11:35:22;103695.13;;;1.89;100.00
31285;BME280;56605;51.516;6.742;2023-01-24T11:37:59;103694.91;;;1.97;100.00
31285;BME280;56605;51.516;6.742;2023-01-24T11:40:36;103691.09;;;2.09;100.00
31285;BME280;56605;51.516;6.742;2023-01-24T11:43:26;103693.50;;;1.82;100.00
31285;BME280;56605;51.516;6.742;2023-01-24T11:49:11;103682.94;;;1.84;100.00
31285;BME280;56605;51.516;6.742;2023-01-24T11:51:53;103679.09;;;1.97;100.00
31285;BME280;56605;51.516;6.742;2023-01-24T11:54:44;103668.72;;;1.91;100.00
31285;BME280;56605;51.516;6.742;2023-01-24T12:00:24;103663.94;;;1.71;100.00
31285;BME280;56605;51.516;6.742;2023-01-24T12:12:14;103645.88;;;1.92;100.00
31285;BME280;56605;51.516;6.742;2023-01-24T12:15:01;103646.78;;;1.90;100.00
31285;BME280;56605;51.516;6.742;2023-01-24T12:17:42;103643.19;;;1.93;100.00
31285;BME280;56605;51.516;6.742;2023-01-24T12:22:49;103638.88;;;1.90;100.00
31285;BME280;56605;51.516;6.742;2023-01-24T12:25:26;103636.56;;;1.76;100.00
31285;BME280;56605;51.516;6.742;2023-01-24T12:27:56;103628.25;;;1.94;100.00
31285;BME280;56605;51.516;6.742;2023-01-24T12:30:50;103629.31;;;1.86;100.00
31285;BME280;56605;51.516;6.742;2023-01-24T12:33:25;103620.44;;;1.90;100.00
31285;BME280;56605;51.516;6.742;2023-01-24T12:35:59;103627.81;;;2.11;100.00
31285;BME280;56605;51.516;6.742;2023-01-24T12:43:56;103617.44;;;1.70;100.00
31285;BME280;56605;51.516;6.742;2023-01-24T12:46:29;103618.91;;;2.15;100.00
31285;BME280;56605;51.516;6.742;2023-01-24T12:49:23;103621.97;;;1.99;100.00
31285;BME280;56605;51.516;6.742;2023-01-24T12:52:03;103610.44;;;2.03;100.00
31285;BME280;56605;51.516;6.742;2023-01-24T12:54:39;103605.28;;;1.99;100.00
31285;BME280;56605;51.516;6.742;2023-01-24T12:57:25;103607.13;;;1.97;100.00
31285;BME280;56605;51.516;6.742;2023-01-24T12:59:52;103606.34;;;2.26;100.00
31285;BME280;56605;51.516;6.742;2023-01-24T13:05:02;103608.56;;;2.09;100.00
31285;BME280;56605;51.516;6.742;2023-01-24T13:12:42;103598.84;;;2.43;100.00
31285;BME280;56605;51.516;6.742;2023-01-24T13:15:20;103602.31;;;2.45;100.00
31285;BME280;56605;51.516;6.742;2023-01-24T13:18:05;103600.72;;;2.39;100.00
31285;BME280;56605;51.516;6.742;2023-01-24T13:20:51;103594.19;;;2.19;100.00
31285;BME280;56605;51.516;6.742;2023-01-24T13:28:56;103598.47;;;2.25;100.00
31285;BME280;56605;51.516;6.742;2023-01-24T13:31:28;103585.66;;;2.11;100.00
31285;BME280;56605;51.516;6.742;2023-01-24T13:34:01;103593.16;;;2.26;100.00
31285;BME280;56605;51.516;6.742;2023-01-24T13:36:33;103596.03;;;2.17;100.00
31285;BME280;56605;51.516;6.742;2023-01-24T13:39:00;103593.22;;;1.90;100.00
31285;BME280;56605;51.516;6.742;2023-01-24T13:44:02;103598.53;;;1.88;100.00
31285;BME280;56605;51.516;6.742;2023-01-24T13:46:59;103602.78;;;1.93;100.00
31285;BME280;56605;51.516;6.742;2023-01-24T13:51:53;103598.97;;;2.05;100.00
31285;BME280;56605;51.516;6.742;2023-01-24T13:54:34;103598.19;;;2.02;100.00
31285;BME280;56605;51.516;6.742;2023-01-24T13:59:41;103606.66;;;2.47;100.00
31285;BME280;56605;51.516;6.742;2023-01-24T14:04:58;103598.41;;;1.93;100.00
31285;BME280;56605;51.516;6.742;2023-01-24T14:07:38;103599.44;;;1.87;100.00
31285;BME280;56605;51.516;6.742;2023-01-24T14:10:06;103598.19;;;1.66;100.00
31285;BME280;56605;51.516;6.742;2023-01-24T14:12:36;103604.16;;;1.74;100.00
31285;BME280;56605;51.516;6.742;2023-01-24T14:20:14;103608.41;;;1.80;100.00
31285;BME280;56605;51.516;6.742;2023-01-24T14:22:44;103611.28;;;2.06;100.00